Aérodrome :
LOGIN :

S'inscrire | Disclaimer

   EN    FR    IT 

 










Légende :    VFR   VFR Marginal   IFR   IFR Intensif   IFR Très Intensif
Visi : 
Plafond : 
>= 8 km
>= 3000ft
5 à 8 km
1000 à 3000 ft
1500m à 5 km
500 à 1000 ft
800 à 1500m
200 à 500 ft
< 800m
< 200 ft
Symboles :   Orages  Brouillard  Fortes neiges  Fortes précipitations  Vent > 20 kt
SIGMETs :   Divers  Orages  Givrage  Turbulence  Onde Orograph.  Cendres Volcan.







- Altitude de l'aérodrome : 1036 ft
- Code IATA : ERF


EDDE - Erfurt

DERNIER METAR :
  • 240120Z 23023KT 9999 SCT022 BKN050 06/05 Q1020 R88/2/0095

METARs EXPIRÉS :
  • 240050Z 23022KT 9999 SCT018 BKN100 06/04 Q1020 R88/2/0095
  • 240020Z 24021KT 9999 SCT022 SCT052 BKN100 06/04 Q1019 R88/2/0095
  • 232350Z 24020KT 9999 -RA BKN020 BKN060 06/04 Q1020 R88/2/0095
  • 232320Z 23018KT 9999 SCT023 SCT060 BKN100 06/04 Q1020 R88/2/0095
  • 232250Z 23016KT 9999 SCT023 BKN100 06/04 Q1020 R88/2/0095

TAF TAF EDDE
Valide du 24 à 00h jusqu'au 25 à 00h UTC


232300Z 2400/2424 21015KT 9999 BKN025
TEMPO 2400/2411 20015G25KT
PROB30
TEMPO 2400/2406 BKN012
BECMG 2411/2414 21020G30KT
Pas de NOTAMs connus pour ce terrain.



MET'MAP, la Météo Aéronautique d'un coup d'oeil ! - Copyright ORBIFLY Décembre 2007 - Disclaimer

ORBIFLY MET'MAP TEAM :

Programmation & Développement : Alexandra Zaïnal
Conception & Développement : Baudouin d'Aumeries
Co-Programmation & Développement : Marc-Olivier Méhu
Soutien technique & logistique : Manuel Goepfert

Contact : metmap@orbifly.com




SOURCES & CREDITS :

   NOAA